sensor_id;sensor_type;location;lat;lon;timestamp;temperature;humidity
10419;DHT22;5256;48.728;9.140;2023-03-17T00:00:29;1.70;99.90
10419;DHT22;5256;48.728;9.140;2023-03-17T00:02:54;1.60;99.90
10419;DHT22;5256;48.728;9.140;2023-03-17T00:05:25;1.60;99.90
10419;DHT22;5256;48.728;9.140;2023-03-17T00:07:52;1.50;99.90
10419;DHT22;5256;48.728;9.140;2023-03-17T00:10:22;1.60;99.90
10419;DHT22;5256;48.728;9.140;2023-03-17T00:12:53;1.60;99.90
10419;DHT22;5256;48.728;9.140;2023-03-17T00:15:20;1.60;99.90
10419;DHT22;5256;48.728;9.140;2023-03-17T00:17:47;1.60;99.90
10419;DHT22;5256;48.728;9.140;2023-03-17T00:20:26;1.70;99.90
10419;DHT22;5256;48.728;9.140;2023-03-17T00:22:57;1.70;99.90
10419;DHT22;5256;48.728;9.140;2023-03-17T00:25:27;1.80;99.90
10419;DHT22;5256;48.728;9.140;2023-03-17T00:27:53;1.90;99.90
10419;DHT22;5256;48.728;9.140;2023-03-17T00:30:20;1.90;99.90
10419;DHT22;5256;48.728;9.140;2023-03-17T00:32:48;2.00;99.90
10419;DHT22;5256;48.728;9.140;2023-03-17T00:35:26;2.00;99.90
10419;DHT22;5256;48.728;9.140;2023-03-17T00:37:54;2.10;99.90
10419;DHT22;5256;48.728;9.140;2023-03-17T00:40:25;2.20;99.90
10419;DHT22;5256;48.728;9.140;2023-03-17T00:42:53;2.30;99.90
10419;DHT22;5256;48.728;9.140;2023-03-17T00:45:21;2.40;99.90
10419;DHT22;5256;48.728;9.140;2023-03-17T00:47:49;2.40;99.90
10419;DHT22;5256;48.728;9.140;2023-03-17T00:50:20;2.50;99.90
10419;DHT22;5256;48.728;9.140;2023-03-17T00:52:50;2.50;99.90
10419;DHT22;5256;48.728;9.140;2023-03-17T00:55:17;2.50;99.90
10419;DHT22;5256;48.728;9.140;2023-03-17T00:57:42;2.60;99.90
10419;DHT22;5256;48.728;9.140;2023-03-17T01:00:28;2.70;99.90
10419;DHT22;5256;48.728;9.140;2023-03-17T01:02:55;2.90;99.90
10419;DHT22;5256;48.728;9.140;2023-03-17T01:05:23;2.90;99.90
10419;DHT22;5256;48.728;9.140;2023-03-17T01:07:52;2.80;99.90
10419;DHT22;5256;48.728;9.140;2023-03-17T01:10:26;2.70;99.90
10419;DHT22;5256;48.728;9.140;2023-03-17T01:12:54;2.70;99.90
10419;DHT22;5256;48.728;9.140;2023-03-17T01:15:23;2.60;99.90
10419;DHT22;5256;48.728;9.140;2023-03-17T01:17:50;2.60;99.90
10419;DHT22;5256;48.728;9.140;2023-03-17T01:20:27;2.60;99.90
10419;DHT22;5256;48.728;9.140;2023-03-17T01:22:53;2.70;99.90
10419;DHT22;5256;48.728;9.140;2023-03-17T01:25:19;2.70;99.90
10419;DHT22;5256;48.728;9.140;2023-03-17T01:27:46;2.80;99.90
10419;DHT22;5256;48.728;9.140;2023-03-17T01:32:43;2.80;99.90
10419;DHT22;5256;48.728;9.140;2023-03-17T01:35:09;2.70;99.90
10419;DHT22;5256;48.728;9.140;2023-03-17T01:37:36;2.70;99.90
10419;DHT22;5256;48.728;9.140;2023-03-17T01:40:02;2.70;99.90
10419;DHT22;5256;48.728;9.140;2023-03-17T01:42:28;2.80;99.90
10419;DHT22;5256;48.728;9.140;2023-03-17T01:44:58;2.80;99.90
10419;DHT22;5256;48.728;9.140;2023-03-17T01:47:26;2.80;99.90
10419;DHT22;5256;48.728;9.140;2023-03-17T01:49:53;2.80;99.90
10419;DHT22;5256;48.728;9.140;2023-03-17T01:52:19;2.80;99.90
10419;DHT22;5256;48.728;9.140;2023-03-17T01:55:24;2.80;99.90
10419;DHT22;5256;48.728;9.140;2023-03-17T01:57:52;2.80;99.90
10419;DHT22;5256;48.728;9.140;2023-03-17T02:00:20;2.80;99.90
10419;DHT22;5256;48.728;9.140;2023-03-17T02:02:52;2.80;99.90
10419;DHT22;5256;48.728;9.140;2023-03-17T02:05:23;2.80;99.90
10419;DHT22;5256;48.728;9.140;2023-03-17T02:07:51;2.90;99.90
10419;DHT22;5256;48.728;9.140;2023-03-17T02:10:18;2.90;99.90
10419;DHT22;5256;48.728;9.140;2023-03-17T02:12:49;3.00;99.90
10419;DHT22;5256;48.728;9.140;2023-03-17T02:15:16;3.00;99.90
10419;DHT22;5256;48.728;9.140;2023-03-17T02:17:42;3.00;99.90
10419;DHT22;5256;48.728;9.140;2023-03-17T02:22:49;2.80;99.90
10419;DHT22;5256;48.728;9.140;2023-03-17T02:25:17;2.80;99.90
10419;DHT22;5256;48.728;9.140;2023-03-17T02:27:46;2.80;99.90
10419;DHT22;5256;48.728;9.140;2023-03-17T02:30:16;2.70;99.90
10419;DHT22;5256;48.728;9.140;2023-03-17T02:32:42;2.90;99.90
10419;DHT22;5256;48.728;9.140;2023-03-17T02:35:08;2.90;99.90
10419;DHT22;5256;48.728;9.140;2023-03-17T02:37:34;2.70;99.90
10419;DHT22;5256;48.728;9.140;2023-03-17T02:40:00;2.60;99.90
10419;DHT22;5256;48.728;9.140;2023-03-17T02:42:27;2.50;99.90
10419;DHT22;5256;48.728;9.140;2023-03-17T02:44:53;2.50;99.90
10419;DHT22;5256;48.728;9.140;2023-03-17T02:47:19;2.40;99.90
10419;DHT22;5256;48.728;9.140;2023-03-17T02:49:46;2.40;99.90
10419;DHT22;5256;48.728;9.140;2023-03-17T02:52:12;2.40;99.90
10419;DHT22;5256;48.728;9.140;2023-03-17T02:54:37;2.40;99.90
10419;DHT22;5256;48.728;9.140;2023-03-17T02:57:03;2.40;99.90
10419;DHT22;5256;48.728;9.140;2023-03-17T02:59:29;2.50;99.90
10419;DHT22;5256;48.728;9.140;2023-03-17T03:01:55;2.50;99.90
10419;DHT22;5256;48.728;9.140;2023-03-17T03:04:21;2.60;99.90
10419;DHT22;5256;48.728;9.140;2023-03-17T03:06:47;2.60;99.90
10419;DHT22;5256;48.728;9.140;2023-03-17T03:09:13;2.70;99.90
10419;DHT22;5256;48.728;9.140;2023-03-17T03:11:39;2.70;99.90
10419;DHT22;5256;48.728;9.140;2023-03-17T03:14:06;2.80;99.90
10419;DHT22;5256;48.728;9.140;2023-03-17T03:16:32;2.80;99.90
10419;DHT22;5256;48.728;9.140;2023-03-17T03:18:58;2.80;99.90
10419;DHT22;5256;48.728;9.140;2023-03-17T03:21:24;2.90;99.90
10419;DHT22;5256;48.728;9.140;2023-03-17T03:23:49;2.80;99.90
10419;DHT22;5256;48.728;9.140;2023-03-17T03:26:15;2.80;99.90
10419;DHT22;5256;48.728;9.140;2023-03-17T03:28:41;2.80;99.90
10419;DHT22;5256;48.728;9.140;2023-03-17T03:31:06;2.80;99.90
10419;DHT22;5256;48.728;9.140;2023-03-17T03:33:32;2.80;99.90
10419;DHT22;5256;48.728;9.140;2023-03-17T03:35:58;2.70;99.90
10419;DHT22;5256;48.728;9.140;2023-03-17T03:38:25;2.70;99.90
10419;DHT22;5256;48.728;9.140;2023-03-17T03:40:51;2.60;99.90
10419;DHT22;5256;48.728;9.140;2023-03-17T03:43:17;2.50;99.90
10419;DHT22;5256;48.728;9.140;2023-03-17T03:45:43;2.40;99.90
10419;DHT22;5256;48.728;9.140;2023-03-17T03:48:09;2.40;99.90
10419;DHT22;5256;48.728;9.140;2023-03-17T03:50:34;2.40;99.90
10419;DHT22;5256;48.728;9.140;2023-03-17T03:53:00;2.30;99.90
10419;DHT22;5256;48.728;9.140;2023-03-17T03:55:25;2.20;99.90
10419;DHT22;5256;48.728;9.140;2023-03-17T03:57:51;2.10;99.90
10419;DHT22;5256;48.728;9.140;2023-03-17T04:00:17;2.10;99.90
10419;DHT22;5256;48.728;9.140;2023-03-17T04:02:43;2.00;99.90
10419;DHT22;5256;48.728;9.140;2023-03-17T04:05:16;2.00;99.90
10419;DHT22;5256;48.728;9.140;2023-03-17T04:07:43;1.90;99.90
10419;DHT22;5256;48.728;9.140;2023-03-17T04:10:13;1.90;99.90
10419;DHT22;5256;48.728;9.140;2023-03-17T04:12:40;1.90;99.90
10419;DHT22;5256;48.728;9.140;2023-03-17T04:15:09;1.80;99.90
10419;DHT22;5256;48.728;9.140;2023-03-17T04:17:35;1.90;99.90
10419;DHT22;5256;48.728;9.140;2023-03-17T04:20:01;1.80;99.90
10419;DHT22;5256;48.728;9.140;2023-03-17T04:22:27;1.80;99.90
10419;DHT22;5256;48.728;9.140;2023-03-17T04:24:52;1.80;99.90
10419;DHT22;5256;48.728;9.140;2023-03-17T04:27:18;1.80;99.90
10419;DHT22;5256;48.728;9.140;2023-03-17T04:29:44;1.70;99.90
10419;DHT22;5256;48.728;9.140;2023-03-17T04:32:13;1.80;99.90
10419;DHT22;5256;48.728;9.140;2023-03-17T04:34:39;1.70;99.90
10419;DHT22;5256;48.728;9.140;2023-03-17T04:37:06;1.80;99.90
10419;DHT22;5256;48.728;9.140;2023-03-17T04:39:32;1.80;99.90
10419;DHT22;5256;48.728;9.140;2023-03-17T04:41:57;1.80;99.90
10419;DHT22;5256;48.728;9.140;2023-03-17T04:44:23;1.80;99.90
10419;DHT22;5256;48.728;9.140;2023-03-17T04:46:48;1.70;99.90
10419;DHT22;5256;48.728;9.140;2023-03-17T04:49:14;1.80;99.90
10419;DHT22;5256;48.728;9.140;2023-03-17T04:51:40;1.80;99.90
10419;DHT22;5256;48.728;9.140;2023-03-17T04:54:05;1.90;99.90
10419;DHT22;5256;48.728;9.140;2023-03-17T04:56:31;1.90;99.90
10419;DHT22;5256;48.728;9.140;2023-03-17T04:58:57;2.00;99.90
10419;DHT22;5256;48.728;9.140;2023-03-17T05:01:22;2.00;99.90
10419;DHT22;5256;48.728;9.140;2023-03-17T05:03:48;2.00;99.90
10419;DHT22;5256;48.728;9.140;2023-03-17T05:06:14;2.00;99.90
10419;DHT22;5256;48.728;9.140;2023-03-17T05:08:41;1.90;99.90
10419;DHT22;5256;48.728;9.140;2023-03-17T05:11:09;1.90;99.90
10419;DHT22;5256;48.728;9.140;2023-03-17T05:13:35;1.80;99.90
10419;DHT22;5256;48.728;9.140;2023-03-17T05:16:00;1.80;99.90
10419;DHT22;5256;48.728;9.140;2023-03-17T05:18:26;1.70;99.90
10419;DHT22;5256;48.728;9.140;2023-03-17T05:20:52;1.60;99.90
10419;DHT22;5256;48.728;9.140;2023-03-17T05:23:18;1.70;99.90
10419;DHT22;5256;48.728;9.140;2023-03-17T05:25:44;1.70;99.90
10419;DHT22;5256;48.728;9.140;2023-03-17T05:28:11;1.70;99.90
10419;DHT22;5256;48.728;9.140;2023-03-17T05:30:37;1.70;99.90
10419;DHT22;5256;48.728;9.140;2023-03-17T05:33:03;1.60;99.90
10419;DHT22;5256;48.728;9.140;2023-03-17T05:35:29;1.60;99.90
10419;DHT22;5256;48.728;9.140;2023-03-17T05:37:55;1.50;99.90
10419;DHT22;5256;48.728;9.140;2023-03-17T05:40:21;1.60;99.90
10419;DHT22;5256;48.728;9.140;2023-03-17T05:42:48;1.60;99.90
10419;DHT22;5256;48.728;9.140;2023-03-17T05:45:14;1.60;99.90
10419;DHT22;5256;48.728;9.140;2023-03-17T05:47:40;1.60;99.90
10419;DHT22;5256;48.728;9.140;2023-03-17T05:50:06;1.50;99.90
10419;DHT22;5256;48.728;9.140;2023-03-17T05:52:32;1.60;99.90
10419;DHT22;5256;48.728;9.140;2023-03-17T05:54:57;1.60;99.90
10419;DHT22;5256;48.728;9.140;2023-03-17T05:57:23;1.70;99.90
10419;DHT22;5256;48.728;9.140;2023-03-17T05:59:49;1.70;99.90
10419;DHT22;5256;48.728;9.140;2023-03-17T06:02:17;1.80;99.90
10419;DHT22;5256;48.728;9.140;2023-03-17T06:04:43;1.90;99.90
10419;DHT22;5256;48.728;9.140;2023-03-17T06:07:09;2.00;99.90
10419;DHT22;5256;48.728;9.140;2023-03-17T06:09:35;2.10;99.90
10419;DHT22;5256;48.728;9.140;2023-03-17T06:12:01;2.10;99.90
10419;DHT22;5256;48.728;9.140;2023-03-17T06:14:26;2.20;99.90
10419;DHT22;5256;48.728;9.140;2023-03-17T06:16:52;2.30;99.90
10419;DHT22;5256;48.728;9.140;2023-03-17T06:19:18;2.50;99.90
10419;DHT22;5256;48.728;9.140;2023-03-17T06:21:43;2.60;99.90
10419;DHT22;5256;48.728;9.140;2023-03-17T06:24:09;2.70;99.90
10419;DHT22;5256;48.728;9.140;2023-03-17T06:26:35;2.70;99.90
10419;DHT22;5256;48.728;9.140;2023-03-17T06:29:02;2.80;99.90
10419;DHT22;5256;48.728;9.140;2023-03-17T06:31:27;2.90;99.90
10419;DHT22;5256;48.728;9.140;2023-03-17T06:33:53;2.90;99.90
10419;DHT22;5256;48.728;9.140;2023-03-17T06:36:19;3.00;99.90
10419;DHT22;5256;48.728;9.140;2023-03-17T06:38:45;3.10;99.90
10419;DHT22;5256;48.728;9.140;2023-03-17T06:41:11;3.20;99.90
10419;DHT22;5256;48.728;9.140;2023-03-17T06:43:36;3.30;99.90
10419;DHT22;5256;48.728;9.140;2023-03-17T06:46:02;3.40;99.90
10419;DHT22;5256;48.728;9.140;2023-03-17T06:48:28;3.70;99.90
10419;DHT22;5256;48.728;9.140;2023-03-17T06:50:54;3.90;99.90
10419;DHT22;5256;48.728;9.140;2023-03-17T06:53:20;4.20;99.90
10419;DHT22;5256;48.728;9.140;2023-03-17T06:55:46;4.50;99.90
10419;DHT22;5256;48.728;9.140;2023-03-17T06:58:12;4.80;99.90
10419;DHT22;5256;48.728;9.140;2023-03-17T07:00:40;5.10;99.90
10419;DHT22;5256;48.728;9.140;2023-03-17T07:03:06;5.40;99.90
10419;DHT22;5256;48.728;9.140;2023-03-17T07:05:32;5.80;99.90
10419;DHT22;5256;48.728;9.140;2023-03-17T07:07:58;6.20;99.90
10419;DHT22;5256;48.728;9.140;2023-03-17T07:10:23;6.60;99.90
10419;DHT22;5256;48.728;9.140;2023-03-17T07:12:49;7.10;99.90
10419;DHT22;5256;48.728;9.140;2023-03-17T07:15:15;7.60;99.90
10419;DHT22;5256;48.728;9.140;2023-03-17T07:17:42;8.20;99.90
10419;DHT22;5256;48.728;9.140;2023-03-17T07:20:08;8.70;99.90
10419;DHT22;5256;48.728;9.140;2023-03-17T07:22:35;9.00;99.90
10419;DHT22;5256;48.728;9.140;2023-03-17T07:25:01;9.00;99.90
10419;DHT22;5256;48.728;9.140;2023-03-17T07:27:26;9.10;99.90
10419;DHT22;5256;48.728;9.140;2023-03-17T07:29:52;8.90;99.90
10419;DHT22;5256;48.728;9.140;2023-03-17T07:32:18;9.00;99.90
10419;DHT22;5256;48.728;9.140;2023-03-17T07:34:44;9.00;99.90
10419;DHT22;5256;48.728;9.140;2023-03-17T07:37:10;9.00;99.90
10419;DHT22;5256;48.728;9.140;2023-03-17T07:39:36;9.10;99.90
10419;DHT22;5256;48.728;9.140;2023-03-17T07:42:02;9.30;99.90
10419;DHT22;5256;48.728;9.140;2023-03-17T07:44:28;9.40;99.90
10419;DHT22;5256;48.728;9.140;2023-03-17T07:46:53;9.50;99.90
10419;DHT22;5256;48.728;9.140;2023-03-17T07:49:19;9.50;99.90
10419;DHT22;5256;48.728;9.140;2023-03-17T07:51:45;9.50;99.90
10419;DHT22;5256;48.728;9.140;2023-03-17T07:54:12;9.70;99.90
10419;DHT22;5256;48.728;9.140;2023-03-17T07:56:38;9.80;99.90
10419;DHT22;5256;48.728;9.140;2023-03-17T07:59:04;10.00;99.90
10419;DHT22;5256;48.728;9.140;2023-03-17T08:01:32;10.40;99.50
10419;DHT22;5256;48.728;9.140;2023-03-17T08:03:57;10.60;99.50
10419;DHT22;5256;48.728;9.140;2023-03-17T08:06:23;10.80;99.30
10419;DHT22;5256;48.728;9.140;2023-03-17T08:08:53;11.00;99.20
10419;DHT22;5256;48.728;9.140;2023-03-17T08:11:19;11.10;99.10
10419;DHT22;5256;48.728;9.140;2023-03-17T08:13:46;11.20;98.40
10419;DHT22;5256;48.728;9.140;2023-03-17T08:16:11;11.40;98.80
10419;DHT22;5256;48.728;9.140;2023-03-17T08:18:37;11.50;99.40
10419;DHT22;5256;48.728;9.140;2023-03-17T08:21:03;11.80;98.20
10419;DHT22;5256;48.728;9.140;2023-03-17T08:23:29;12.10;97.60
10419;DHT22;5256;48.728;9.140;2023-03-17T08:26:01;12.20;97.30
10419;DHT22;5256;48.728;9.140;2023-03-17T08:28:28;12.20;96.60
10419;DHT22;5256;48.728;9.140;2023-03-17T08:30:54;12.20;96.50
10419;DHT22;5256;48.728;9.140;2023-03-17T08:33:20;12.10;96.30
10419;DHT22;5256;48.728;9.140;2023-03-17T08:35:46;12.10;96.40
10419;DHT22;5256;48.728;9.140;2023-03-17T08:38:12;12.20;97.00
10419;DHT22;5256;48.728;9.140;2023-03-17T08:40:38;12.30;97.20
10419;DHT22;5256;48.728;9.140;2023-03-17T08:43:04;12.40;96.70
10419;DHT22;5256;48.728;9.140;2023-03-17T08:45:31;12.50;95.70
10419;DHT22;5256;48.728;9.140;2023-03-17T08:47:56;12.70;95.40
10419;DHT22;5256;48.728;9.140;2023-03-17T08:50:22;12.90;96.00
10419;DHT22;5256;48.728;9.140;2023-03-17T08:52:49;13.10;95.30
10419;DHT22;5256;48.728;9.140;2023-03-17T08:55:15;13.20;94.80
10419;DHT22;5256;48.728;9.140;2023-03-17T08:57:41;13.30;94.90
10419;DHT22;5256;48.728;9.140;2023-03-17T09:00:10;13.50;95.40
10419;DHT22;5256;48.728;9.140;2023-03-17T09:02:38;13.70;95.30
10419;DHT22;5256;48.728;9.140;2023-03-17T09:05:05;13.80;94.60
10419;DHT22;5256;48.728;9.140;2023-03-17T09:07:31;13.90;95.30
10419;DHT22;5256;48.728;9.140;2023-03-17T09:09:58;14.10;94.80
10419;DHT22;5256;48.728;9.140;2023-03-17T09:12:24;14.50;94.60
10419;DHT22;5256;48.728;9.140;2023-03-17T09:14:49;14.90;93.90
10419;DHT22;5256;48.728;9.140;2023-03-17T09:17:15;15.40;93.80
10419;DHT22;5256;48.728;9.140;2023-03-17T09:19:41;15.40;92.40
10419;DHT22;5256;48.728;9.140;2023-03-17T09:22:11;15.50;92.40
10419;DHT22;5256;48.728;9.140;2023-03-17T09:24:38;15.50;92.20
10419;DHT22;5256;48.728;9.140;2023-03-17T09:27:03;15.50;92.70
10419;DHT22;5256;48.728;9.140;2023-03-17T09:29:30;15.60;92.80
10419;DHT22;5256;48.728;9.140;2023-03-17T09:31:55;15.60;92.80
10419;DHT22;5256;48.728;9.140;2023-03-17T09:34:21;15.50;92.20
10419;DHT22;5256;48.728;9.140;2023-03-17T09:36:47;15.20;92.60
10419;DHT22;5256;48.728;9.140;2023-03-17T09:39:13;15.00;92.50
10419;DHT22;5256;48.728;9.140;2023-03-17T09:42:04;14.80;92.40
10419;DHT22;5256;48.728;9.140;2023-03-17T09:44:46;14.80;91.90
10419;DHT22;5256;48.728;9.140;2023-03-17T09:47:38;14.60;92.40
10419;DHT22;5256;48.728;9.140;2023-03-17T09:50:15;14.50;92.70
10419;DHT22;5256;48.728;9.140;2023-03-17T09:52:42;14.60;92.50
10419;DHT22;5256;48.728;9.140;2023-03-17T09:55:19;14.60;93.30
10419;DHT22;5256;48.728;9.140;2023-03-17T09:57:49;14.70;92.60
10419;DHT22;5256;48.728;9.140;2023-03-17T10:00:18;14.80;92.20
10419;DHT22;5256;48.728;9.140;2023-03-17T10:02:51;14.80;91.90
10419;DHT22;5256;48.728;9.140;2023-03-17T10:05:50;14.80;91.30
10419;DHT22;5256;48.728;9.140;2023-03-17T10:08:25;14.80;92.00
10419;DHT22;5256;48.728;9.140;2023-03-17T10:11:00;14.80;91.80
10419;DHT22;5256;48.728;9.140;2023-03-17T10:13:45;14.70;92.00
10419;DHT22;5256;48.728;9.140;2023-03-17T10:16:20;14.60;92.30
10419;DHT22;5256;48.728;9.140;2023-03-17T10:18:56;14.70;92.20
10419;DHT22;5256;48.728;9.140;2023-03-17T10:21:32;14.80;92.20
10419;DHT22;5256;48.728;9.140;2023-03-17T10:24:01;15.00;92.40
10419;DHT22;5256;48.728;9.140;2023-03-17T10:26:31;15.00;93.00
10419;DHT22;5256;48.728;9.140;2023-03-17T10:28:57;15.10;93.00
10419;DHT22;5256;48.728;9.140;2023-03-17T10:31:32;15.10;93.20
10419;DHT22;5256;48.728;9.140;2023-03-17T10:36:42;15.60;92.70
10419;DHT22;5256;48.728;9.140;2023-03-17T10:39:16;15.60;92.00
10419;DHT22;5256;48.728;9.140;2023-03-17T10:41:59;15.80;91.60
10419;DHT22;5256;48.728;9.140;2023-03-17T10:47:22;16.30;92.30
10419;DHT22;5256;48.728;9.140;2023-03-17T10:49:49;16.70;91.10
10419;DHT22;5256;48.728;9.140;2023-03-17T10:52:24;16.70;91.60
10419;DHT22;5256;48.728;9.140;2023-03-17T10:54:51;16.90;90.90
10419;DHT22;5256;48.728;9.140;2023-03-17T10:57:17;16.70;91.10
10419;DHT22;5256;48.728;9.140;2023-03-17T10:59:50;16.80;90.70
10419;DHT22;5256;48.728;9.140;2023-03-17T11:02:33;17.10;90.80
10419;DHT22;5256;48.728;9.140;2023-03-17T11:05:05;17.00;90.50
10419;DHT22;5256;48.728;9.140;2023-03-17T11:07:39;16.90;91.40
10419;DHT22;5256;48.728;9.140;2023-03-17T11:10:25;17.10;90.40
10419;DHT22;5256;48.728;9.140;2023-03-17T11:12:58;17.20;90.00
10419;DHT22;5256;48.728;9.140;2023-03-17T11:15:31;17.20;90.50
10419;DHT22;5256;48.728;9.140;2023-03-17T11:18:00;17.50;91.00
10419;DHT22;5256;48.728;9.140;2023-03-17T11:26:17;17.70;90.60
10419;DHT22;5256;48.728;9.140;2023-03-17T11:28:54;17.60;91.00
10419;DHT22;5256;48.728;9.140;2023-03-17T11:31:31;17.80;91.50
10419;DHT22;5256;48.728;9.140;2023-03-17T11:34:07;18.00;91.40
10419;DHT22;5256;48.728;9.140;2023-03-17T11:39:41;18.00;91.20
10419;DHT22;5256;48.728;9.140;2023-03-17T11:50:27;18.40;89.50
10419;DHT22;5256;48.728;9.140;2023-03-17T11:55:52;18.60;87.80
10419;DHT22;5256;48.728;9.140;2023-03-17T12:00:53;18.80;89.70
10419;DHT22;5256;48.728;9.140;2023-03-17T12:03:42;18.90;88.50
10419;DHT22;5256;48.728;9.140;2023-03-17T12:06:16;18.70;88.20
10419;DHT22;5256;48.728;9.140;2023-03-17T12:08:54;18.70;87.80
10419;DHT22;5256;48.728;9.140;2023-03-17T12:11:25;18.60;88.30
10419;DHT22;5256;48.728;9.140;2023-03-17T12:14:01;18.70;89.10
10419;DHT22;5256;48.728;9.140;2023-03-17T12:16:42;19.00;87.40
10419;DHT22;5256;48.728;9.140;2023-03-17T12:22:07;19.00;84.10
10419;DHT22;5256;48.728;9.140;2023-03-17T12:24:39;19.20;86.30
10419;DHT22;5256;48.728;9.140;2023-03-17T12:27:12;19.40;84.10
10419;DHT22;5256;48.728;9.140;2023-03-17T12:29:46;19.50;84.30
10419;DHT22;5256;48.728;9.140;2023-03-17T12:35:03;19.70;83.80
10419;DHT22;5256;48.728;9.140;2023-03-17T12:37:31;19.90;83.20
10419;DHT22;5256;48.728;9.140;2023-03-17T12:40:15;19.80;83.50
10419;DHT22;5256;48.728;9.140;2023-03-17T12:54:00;19.70;84.80
10419;DHT22;5256;48.728;9.140;2023-03-17T12:56:31;19.80;84.60
10419;DHT22;5256;48.728;9.140;2023-03-17T12:59:04;19.90;87.20
10419;DHT22;5256;48.728;9.140;2023-03-17T13:01:32;19.80;86.10
10419;DHT22;5256;48.728;9.140;2023-03-17T13:06:44;19.60;85.80
10419;DHT22;5256;48.728;9.140;2023-03-17T13:12:04;19.70;86.00
10419;DHT22;5256;48.728;9.140;2023-03-17T13:22:41;20.10;85.10
10419;DHT22;5256;48.728;9.140;2023-03-17T13:25:34;19.60;86.10
10419;DHT22;5256;48.728;9.140;2023-03-17T13:35:39;19.70;85.30
10419;DHT22;5256;48.728;9.140;2023-03-17T13:38:22;19.90;86.40
10419;DHT22;5256;48.728;9.140;2023-03-17T13:41:10;19.90;84.90
10419;DHT22;5256;48.728;9.140;2023-03-17T13:46:21;19.80;82.60
10419;DHT22;5256;48.728;9.140;2023-03-17T13:48:49;20.00;81.50
10419;DHT22;5256;48.728;9.140;2023-03-17T13:53:50;20.10;81.30
10419;DHT22;5256;48.728;9.140;2023-03-17T13:56:24;20.00;80.80
10419;DHT22;5256;48.728;9.140;2023-03-17T14:02:02;20.00;78.00
10419;DHT22;5256;48.728;9.140;2023-03-17T14:04:56;19.90;74.20
10419;DHT22;5256;48.728;9.140;2023-03-17T14:07:26;19.90;74.90
10419;DHT22;5256;48.728;9.140;2023-03-17T14:09:57;20.10;75.90
10419;DHT22;5256;48.728;9.140;2023-03-17T14:15:36;20.40;77.20
10419;DHT22;5256;48.728;9.140;2023-03-17T14:18:41;20.50;75.90
10419;DHT22;5256;48.728;9.140;2023-03-17T14:21:22;20.60;74.60
10419;DHT22;5256;48.728;9.140;2023-03-17T14:23:53;20.70;75.30
10419;DHT22;5256;48.728;9.140;2023-03-17T14:26:19;20.50;74.90
10419;DHT22;5256;48.728;9.140;2023-03-17T14:28:46;20.60;75.50
10419;DHT22;5256;48.728;9.140;2023-03-17T14:31:21;20.60;75.10
10419;DHT22;5256;48.728;9.140;2023-03-17T14:33:47;20.60;76.40
10419;DHT22;5256;48.728;9.140;2023-03-17T14:36:17;20.50;76.10
10419;DHT22;5256;48.728;9.140;2023-03-17T14:38:52;20.00;75.40
10419;DHT22;5256;48.728;9.140;2023-03-17T14:41:23;20.00;74.20
10419;DHT22;5256;48.728;9.140;2023-03-17T14:43:50;20.00;73.90
10419;DHT22;5256;48.728;9.140;2023-03-17T14:46:30;20.00;73.50
10419;DHT22;5256;48.728;9.140;2023-03-17T14:48:59;19.90;70.90
10419;DHT22;5256;48.728;9.140;2023-03-17T14:51:29;19.80;70.10
10419;DHT22;5256;48.728;9.140;2023-03-17T14:54:11;19.80;69.50
10419;DHT22;5256;48.728;9.140;2023-03-17T14:56:41;19.90;72.50
10419;DHT22;5256;48.728;9.140;2023-03-17T15:01:46;19.80;72.60
10419;DHT22;5256;48.728;9.140;2023-03-17T15:04:21;19.80;73.40
10419;DHT22;5256;48.728;9.140;2023-03-17T15:06:52;19.70;75.30
10419;DHT22;5256;48.728;9.140;2023-03-17T15:09:35;19.50;76.30
10419;DHT22;5256;48.728;9.140;2023-03-17T15:12:18;19.60;77.40
10419;DHT22;5256;48.728;9.140;2023-03-17T15:14:46;19.70;76.70
10419;DHT22;5256;48.728;9.140;2023-03-17T15:17:20;19.70;75.10
10419;DHT22;5256;48.728;9.140;2023-03-17T15:19:51;19.70;77.20
10419;DHT22;5256;48.728;9.140;2023-03-17T15:22:46;19.50;76.80
10419;DHT22;5256;48.728;9.140;2023-03-17T15:27:42;19.50;77.70
10419;DHT22;5256;48.728;9.140;2023-03-17T15:30:08;19.50;75.90
10419;DHT22;5256;48.728;9.140;2023-03-17T15:32:34;19.40;77.10
10419;DHT22;5256;48.728;9.140;2023-03-17T15:35:00;19.30;78.20
10419;DHT22;5256;48.728;9.140;2023-03-17T15:37:28;19.20;78.80
10419;DHT22;5256;48.728;9.140;2023-03-17T15:39:55;19.10;77.20
10419;DHT22;5256;48.728;9.140;2023-03-17T15:42:23;18.90;79.20
10419;DHT22;5256;48.728;9.140;2023-03-17T15:44:50;18.80;79.10
10419;DHT22;5256;48.728;9.140;2023-03-17T15:47:18;18.70;79.20
10419;DHT22;5256;48.728;9.140;2023-03-17T15:49:45;18.50;79.60
10419;DHT22;5256;48.728;9.140;2023-03-17T15:52:16;18.40;79.40
10419;DHT22;5256;48.728;9.140;2023-03-17T15:54:42;18.30;80.70
10419;DHT22;5256;48.728;9.140;2023-03-17T15:57:10;18.20;82.10
10419;DHT22;5256;48.728;9.140;2023-03-17T15:59:36;18.20;80.80
10419;DHT22;5256;48.728;9.140;2023-03-17T16:02:02;18.10;81.10
10419;DHT22;5256;48.728;9.140;2023-03-17T16:04:27;18.00;81.80
10419;DHT22;5256;48.728;9.140;2023-03-17T16:06:53;17.90;82.10
10419;DHT22;5256;48.728;9.140;2023-03-17T16:09:18;17.80;80.30
10419;DHT22;5256;48.728;9.140;2023-03-17T16:11:44;17.70;80.90
10419;DHT22;5256;48.728;9.140;2023-03-17T16:14:10;17.60;81.60
10419;DHT22;5256;48.728;9.140;2023-03-17T16:16:38;17.50;81.80
10419;DHT22;5256;48.728;9.140;2023-03-17T16:19:07;17.30;81.90
10419;DHT22;5256;48.728;9.140;2023-03-17T16:21:35;17.30;81.70
10419;DHT22;5256;48.728;9.140;2023-03-17T16:24:01;17.20;82.10
10419;DHT22;5256;48.728;9.140;2023-03-17T16:26:27;17.10;82.70
10419;DHT22;5256;48.728;9.140;2023-03-17T16:28:56;17.00;83.90
10419;DHT22;5256;48.728;9.140;2023-03-17T16:31:24;16.90;84.70
10419;DHT22;5256;48.728;9.140;2023-03-17T16:33:51;16.80;84.10
10419;DHT22;5256;48.728;9.140;2023-03-17T16:36:18;16.80;84.90
10419;DHT22;5256;48.728;9.140;2023-03-17T16:38:45;16.70;85.50
10419;DHT22;5256;48.728;9.140;2023-03-17T16:41:33;16.70;86.60
10419;DHT22;5256;48.728;9.140;2023-03-17T16:44:00;16.70;86.40
10419;DHT22;5256;48.728;9.140;2023-03-17T16:46:28;16.50;87.10
10419;DHT22;5256;48.728;9.140;2023-03-17T16:48:55;16.40;87.70
10419;DHT22;5256;48.728;9.140;2023-03-17T16:51:21;16.20;88.30
10419;DHT22;5256;48.728;9.140;2023-03-17T16:53:46;16.00;88.80
10419;DHT22;5256;48.728;9.140;2023-03-17T16:56:15;15.90;89.70
10419;DHT22;5256;48.728;9.140;2023-03-17T16:58:41;15.80;90.30
10419;DHT22;5256;48.728;9.140;2023-03-17T17:01:16;15.60;90.80
10419;DHT22;5256;48.728;9.140;2023-03-17T17:03:43;15.40;91.20
10419;DHT22;5256;48.728;9.140;2023-03-17T17:06:10;15.30;91.60
10419;DHT22;5256;48.728;9.140;2023-03-17T17:08:36;15.20;91.70
10419;DHT22;5256;48.728;9.140;2023-03-17T17:11:02;15.10;92.10
10419;DHT22;5256;48.728;9.140;2023-03-17T17:13:28;15.00;92.50
10419;DHT22;5256;48.728;9.140;2023-03-17T17:15:54;14.90;92.60
10419;DHT22;5256;48.728;9.140;2023-03-17T17:18:21;15.00;93.00
10419;DHT22;5256;48.728;9.140;2023-03-17T17:20:49;15.10;92.90
10419;DHT22;5256;48.728;9.140;2023-03-17T17:23:20;15.10;92.80
10419;DHT22;5256;48.728;9.140;2023-03-17T17:25:46;15.00;92.50
10419;DHT22;5256;48.728;9.140;2023-03-17T17:28:15;15.10;92.20
10419;DHT22;5256;48.728;9.140;2023-03-17T17:30:41;15.30;91.20
10419;DHT22;5256;48.728;9.140;2023-03-17T17:33:10;15.30;91.30